Arlington, Minnesota
Current Conditions -  °F | °C
As of 10:15 AM on Monday 22 Dec 2014 (Local Time) from KGYL Reporting Station
Drizzle Drizzle  
Wind Chill: -1°   Ceiling: 500
Heat Index:   Visibility: 4mi
Dew Point:   Wind: 12mph
Humidity: 99%   Direction: 120°ESE
Pressure: 29.6"   Gusts: 17mph
Location:  44.61°N, 94.08°W
Report Text: KGYL 221615Z AUTO 12010G15KT 4SM -DZ OVC005 03/03 A2960 RMK AO2 T00310030
Loading
Personal Weather Stations






























Interactive Weather Map New forecast layout! Learn more

10-Day Weather Forecast

Advertisements
Track Severe Weather on mobile